Time;durP1;ratioP1;P1;durP2;ratioP2;P2;SDS_P1;SDS_P2;PMS_P1;PMS_P2;Temp;Humidity;BMP_temperature;BMP_pressure;BME280_temperature;BME280_humidity;BME280_pressure;Samples;Min_cycle;Max_cycle;Signal;HPM_P1;HPM_P2
2023/04/24 00:00:09;;;;;;;1.40;0.80;;;13.20;99.90;;;;;;5004817;28;20734;-70
2023/04/24 00:02:37;;;;;;;1.53;0.80;;;13.20;99.90;;;;;;5004239;28;20233;-71
2023/04/24 00:05:07;;;;;;;0.93;0.90;;;13.20;99.90;;;;;;5005954;28;20851;-71
2023/04/24 00:07:33;;;;;;;1.50;1.23;;;13.20;99.90;;;;;;5007137;28;20507;-71
2023/04/24 00:09:59;;;;;;;0.80;0.80;;;13.10;99.90;;;;;;4997064;28;20495;-71
2023/04/24 00:12:26;;;;;;;1.20;0.97;;;13.10;99.90;;;;;;4997205;28;20516;-72
2023/04/24 00:14:52;;;;;;;0.83;0.83;;;13.00;99.90;;;;;;4998299;28;20449;-70
2023/04/24 00:17:20;;;;;;;2.33;1.50;;;13.00;99.90;;;;;;4998112;28;20470;-71
2023/04/24 00:19:47;;;;;;;1.80;1.03;;;13.10;99.90;;;;;;4997034;28;20548;-70
2023/04/24 00:22:13;;;;;;;1.17;1.17;;;13.00;99.90;;;;;;4994387;28;20998;-71
2023/04/24 00:24:39;;;;;;;0.83;0.83;;;13.00;99.90;;;;;;5002031;28;20461;-71
2023/04/24 00:27:05;;;;;;;0.90;0.90;;;13.00;99.90;;;;;;4984006;28;20811;-71
2023/04/24 00:29:30;;;;;;;2.93;0.90;;;12.90;99.90;;;;;;4987178;28;20472;-71
2023/04/24 00:31:56;;;;;;;4.57;1.03;;;12.90;99.90;;;;;;4983767;28;20242;-71
2023/04/24 00:34:22;;;;;;;0.70;0.70;;;13.00;99.90;;;;;;4995994;28;20758;-72
2023/04/24 00:36:51;;;;;;;0.70;0.70;;;13.00;99.90;;;;;;4997748;28;20224;-72
2023/04/24 00:39:21;;;;;;;1.20;1.10;;;12.90;99.90;;;;;;4983193;28;20300;-69
2023/04/24 00:41:48;;;;;;;3.37;1.10;;;12.80;99.90;;;;;;4998246;28;21003;-72
2023/04/24 00:44:14;;;;;;;1.53;1.20;;;12.80;99.90;;;;;;4999973;28;20458;-71
2023/04/24 00:46:40;;;;;;;0.73;0.70;;;12.80;99.90;;;;;;5002320;28;21005;-71
2023/04/24 00:49:06;;;;;;;1.00;1.00;;;12.80;99.90;;;;;;5000838;28;21073;-70
2023/04/24 00:51:32;;;;;;;0.73;0.73;;;12.80;99.90;;;;;;4991388;28;20465;-75
2023/04/24 00:53:59;;;;;;;1.00;1.00;;;12.80;99.90;;;;;;5005663;28;20236;-72
2023/04/24 00:56:25;;;;;;;0.90;0.90;;;12.80;99.90;;;;;;5006612;28;20451;-72
2023/04/24 00:58:51;;;;;;;1.47;1.20;;;12.80;99.90;;;;;;4994499;28;20457;-73
2023/04/24 01:01:20;;;;;;;2.63;1.70;;;12.60;99.90;;;;;;5003675;28;20544;-71
2023/04/24 01:03:46;;;;;;;1.10;1.00;;;12.60;99.90;;;;;;5006944;28;21093;-73
2023/04/24 01:06:12;;;;;;;2.10;1.37;;;12.60;99.90;;;;;;5005937;28;20464;-72
2023/04/24 01:08:39;;;;;;;1.90;1.00;;;12.70;99.90;;;;;;5003353;28;20268;-73
2023/04/24 01:11:05;;;;;;;1.20;1.03;;;12.70;99.90;;;;;;4997399;28;20968;-73
2023/04/24 01:13:32;;;;;;;3.40;1.20;;;12.60;99.90;;;;;;5008324;28;20495;-74
2023/04/24 01:15:58;;;;;;;1.57;1.10;;;12.70;99.90;;;;;;4990671;28;21165;-73
2023/04/24 01:18:24;;;;;;;1.90;1.00;;;12.70;99.90;;;;;;5001734;28;20483;-70
2023/04/24 01:20:52;;;;;;;1.20;1.10;;;12.70;99.90;;;;;;4997775;28;20314;-71
2023/04/24 01:23:18;;;;;;;1.20;1.07;;;12.60;99.90;;;;;;5000092;28;20492;-71
2023/04/24 01:25:45;;;;;;;1.23;1.13;;;12.50;99.90;;;;;;5005616;28;20483;-71
2023/04/24 01:28:10;;;;;;;1.20;1.10;;;12.50;99.90;;;;;;5005503;28;20457;-72
2023/04/24 01:30:38;;;;;;;0.93;0.87;;;12.40;99.90;;;;;;4989485;28;20573;-70
2023/04/24 01:33:04;;;;;;;1.07;0.97;;;12.40;99.90;;;;;;4999504;28;20536;-70
2023/04/24 01:35:30;;;;;;;1.10;1.00;;;12.40;99.90;;;;;;5004057;28;20206;-71
2023/04/24 01:37:55;;;;;;;1.20;1.10;;;12.50;99.90;;;;;;5005548;28;20468;-70
2023/04/24 01:40:21;;;;;;;1.43;1.20;;;12.50;99.90;;;;;;4999563;28;20245;-71
2023/04/24 01:42:47;;;;;;;3.73;1.20;;;12.50;99.90;;;;;;4999550;28;20237;-69
2023/04/24 01:45:13;;;;;;;1.10;1.00;;;12.40;99.90;;;;;;5008445;28;20214;-70
2023/04/24 01:47:39;;;;;;;1.30;1.20;;;12.30;99.90;;;;;;5003864;28;20782;-71
2023/04/24 01:50:05;;;;;;;2.47;1.10;;;12.10;99.90;;;;;;4986958;28;20457;-71
2023/04/24 01:52:33;;;;;;;1.53;1.10;;;12.00;99.90;;;;;;4991066;28;20563;-71
2023/04/24 01:55:03;;;;;;;1.10;1.00;;;12.10;99.90;;;;;;5004450;28;20465;-73
2023/04/24 01:57:30;;;;;;;1.20;1.10;;;12.10;99.90;;;;;;4981378;28;21005;-72
2023/04/24 01:59:56;;;;;;;1.67;1.30;;;12.00;99.90;;;;;;5003834;28;20441;-73
2023/04/24 02:02:23;;;;;;;4.00;0.97;;;12.00;99.90;;;;;;4987035;28;20465;-72
2023/04/24 02:04:52;;;;;;;1.47;1.10;;;12.00;99.90;;;;;;5003729;28;20221;-70
2023/04/24 02:07:18;;;;;;;2.00;1.10;;;11.90;99.90;;;;;;5014405;28;20791;-72
2023/04/24 02:09:43;;;;;;;1.00;1.00;;;12.00;99.90;;;;;;5000411;28;20453;-73
2023/04/24 02:12:09;;;;;;;1.40;1.30;;;12.00;99.90;;;;;;5002138;28;20237;-71
2023/04/24 02:14:35;;;;;;;3.60;1.20;;;12.00;99.90;;;;;;5001526;28;20290;-73
2023/04/24 02:17:02;;;;;;;2.30;1.10;;;11.90;99.90;;;;;;4997507;28;20462;-73
2023/04/24 02:19:28;;;;;;;1.37;1.20;;;11.90;99.90;;;;;;4992422;28;20507;-70
2023/04/24 02:21:54;;;;;;;1.13;1.10;;;11.80;99.90;;;;;;4988954;28;20727;-70
2023/04/24 02:24:19;;;;;;;1.63;1.10;;;11.80;99.90;;;;;;4988804;28;20218;-70
2023/04/24 02:26:45;;;;;;;1.53;1.27;;;11.70;99.90;;;;;;5004038;28;20218;-73
2023/04/24 02:29:11;;;;;;;1.23;1.20;;;11.70;99.90;;;;;;4998847;28;20761;-72
2023/04/24 02:31:36;;;;;;;1.50;1.17;;;11.70;99.90;;;;;;4990445;28;20696;-73
2023/04/24 02:34:02;;;;;;;1.27;1.17;;;11.70;99.90;;;;;;5004614;28;20226;-72
2023/04/24 02:36:28;;;;;;;2.57;1.47;;;11.70;99.90;;;;;;5005504;28;20335;-72
2023/04/24 02:38:53;;;;;;;1.87;1.27;;;11.70;99.90;;;;;;4996012;28;20225;-72
2023/04/24 02:41:19;;;;;;;1.00;1.00;;;11.90;99.90;;;;;;4989777;28;20210;-73
2023/04/24 02:43:45;;;;;;;1.37;1.20;;;11.90;99.90;;;;;;5000507;28;20309;-71
2023/04/24 02:46:11;;;;;;;1.10;1.00;;;11.80;99.90;;;;;;4998978;28;20217;-74
2023/04/24 02:48:36;;;;;;;2.17;1.53;;;11.80;99.90;;;;;;4985362;28;20765;-73
2023/04/24 02:51:03;;;;;;;1.00;1.00;;;11.70;99.90;;;;;;4997104;28;20226;-71
2023/04/24 02:53:30;;;;;;;2.23;1.03;;;11.70;99.90;;;;;;5000085;28;20229;-72
2023/04/24 02:55:56;;;;;;;0.90;0.90;;;11.70;99.90;;;;;;5002732;28;20481;-71
2023/04/24 02:58:22;;;;;;;1.27;1.17;;;11.90;99.90;;;;;;4991112;28;20475;-73
2023/04/24 03:00:48;;;;;;;2.20;1.40;;;11.90;99.90;;;;;;4989355;28;20475;-71
2023/04/24 03:03:15;;;;;;;1.13;1.03;;;12.00;99.90;;;;;;4991969;28;20871;-72
2023/04/24 03:05:40;;;;;;;2.53;1.40;;;11.90;99.90;;;;;;5002603;28;20217;-73
2023/04/24 03:08:06;;;;;;;1.20;1.10;;;11.70;99.90;;;;;;5004318;28;20506;-72
2023/04/24 03:10:32;;;;;;;1.20;1.20;;;11.60;99.90;;;;;;4987328;28;20305;-73
2023/04/24 03:12:58;;;;;;;1.20;1.10;;;11.50;99.90;;;;;;4987137;28;20304;-73
2023/04/24 03:15:23;;;;;;;4.23;1.43;;;11.60;99.90;;;;;;5003312;28;20795;-72
2023/04/24 03:17:49;;;;;;;1.40;1.30;;;11.50;99.90;;;;;;5001700;28;20217;-71
2023/04/24 03:20:15;;;;;;;1.10;1.00;;;11.50;99.90;;;;;;5013518;28;20308;-72
2023/04/24 03:22:41;;;;;;;1.57;1.47;;;11.40;99.90;;;;;;5003726;28;20300;-73
2023/04/24 03:25:10;;;;;;;1.50;1.40;;;11.60;99.90;;;;;;5000576;28;20451;-73
2023/04/24 03:27:37;;;;;;;1.20;0.97;;;11.40;99.90;;;;;;4987723;28;20544;-72
2023/04/24 03:30:07;;;;;;;1.60;1.50;;;11.40;99.90;;;;;;4997778;28;20461;-72
2023/04/24 03:32:42;;;;;;;1.30;1.20;;;11.50;99.90;;;;;;4983346;28;20475;-71
2023/04/24 03:35:11;;;;;;;1.43;1.33;;;11.30;99.90;;;;;;4996818;28;20454;-71
2023/04/24 03:37:37;;;;;;;1.43;1.33;;;11.10;99.90;;;;;;5002921;28;20504;-71
2023/04/24 03:40:22;;;;;;;1.73;1.40;;;11.10;99.90;;;;;;4997589;28;20453;-71
2023/04/24 03:42:48;;;;;;;1.60;1.50;;;11.00;99.90;;;;;;4998876;28;20489;-72
2023/04/24 03:45:14;;;;;;;2.30;2.07;;;11.00;99.90;;;;;;4989611;28;20544;-73
2023/04/24 03:47:42;;;;;;;2.10;1.90;;;10.80;99.90;;;;;;4998574;28;20210;-73
2023/04/24 03:50:08;;;;;;;1.70;1.60;;;10.80;99.90;;;;;;5001849;28;20457;-73
2023/04/24 03:52:34;;;;;;;2.83;1.77;;;10.70;99.90;;;;;;5003651;28;20226;-73
2023/04/24 03:55:00;;;;;;;2.93;1.67;;;10.60;99.90;;;;;;5005728;28;20457;-73
2023/04/24 03:57:27;;;;;;;2.33;2.07;;;10.60;99.90;;;;;;5001417;28;20978;-70
2023/04/24 04:00:06;;;;;;;2.27;2.07;;;10.40;99.90;;;;;;4998194;28;20488;-69
2023/04/24 04:02:40;;;;;;;1.87;1.63;;;10.30;99.90;;;;;;5002000;28;20547;-69
2023/04/24 04:05:06;;;;;;;2.53;2.10;;;10.20;99.90;;;;;;4988115;28;20596;-69
2023/04/24 04:07:31;;;;;;;1.77;1.67;;;10.20;99.90;;;;;;4990416;28;20612;-69
2023/04/24 04:09:57;;;;;;;1.60;1.50;;;10.10;99.90;;;;;;5002662;28;20571;-70
2023/04/24 04:12:23;;;;;;;1.80;1.70;;;10.00;99.90;;;;;;4997325;28;20295;-68
2023/04/24 04:14:49;;;;;;;2.60;2.40;;;10.00;99.90;;;;;;4999399;28;20232;-69
2023/04/24 04:17:15;;;;;;;1.97;1.87;;;9.90;99.90;;;;;;5000167;28;20300;-70
2023/04/24 04:19:41;;;;;;;2.90;2.50;;;9.90;99.90;;;;;;4988313;28;20657;-69
2023/04/24 04:22:07;;;;;;;2.33;1.97;;;9.80;99.90;;;;;;4983433;28;20488;-70
2023/04/24 04:24:40;;;;;;;1.80;1.70;;;9.70;99.90;;;;;;4998870;28;20268;-72
2023/04/24 04:27:07;;;;;;;2.47;1.90;;;9.60;99.90;;;;;;5011238;28;20445;-72
2023/04/24 04:29:41;;;;;;;3.27;2.20;;;9.70;99.90;;;;;;4998805;28;20460;-71
2023/04/24 04:32:09;;;;;;;2.23;2.03;;;9.60;99.90;;;;;;4989970;28;20469;-72
2023/04/24 04:34:37;;;;;;;2.47;2.00;;;9.50;99.90;;;;;;5002343;28;20461;-73
2023/04/24 04:37:03;;;;;;;2.30;2.10;;;9.50;99.90;;;;;;4976799;28;20692;-72
2023/04/24 04:39:49;;;;;;;2.73;2.40;;;9.60;99.90;;;;;;4996139;28;20509;-71
2023/04/24 04:42:19;;;;;;;2.30;2.10;;;9.50;99.90;;;;;;5010635;28;20998;-72
2023/04/24 04:44:45;;;;;;;2.17;1.97;;;9.50;99.90;;;;;;4987901;28;20465;-71
2023/04/24 04:47:17;;;;;;;4.23;2.67;;;9.50;99.90;;;;;;4991929;28;20232;-71
2023/04/24 04:49:43;;;;;;;2.20;2.00;;;9.50;99.90;;;;;;4987576;28;20499;-72
2023/04/24 04:52:17;;;;;;;2.17;1.93;;;9.50;99.90;;;;;;4999244;28;20461;-71
2023/04/24 04:54:46;;;;;;;3.10;2.70;;;9.40;99.90;;;;;;4994827;28;20458;-72
2023/04/24 04:57:12;;;;;;;2.20;2.00;;;9.40;99.90;;;;;;4986786;28;20500;-72
2023/04/24 04:59:38;;;;;;;6.50;2.43;;;9.30;99.90;;;;;;4996880;28;20487;-74
2023/04/24 05:02:09;;;;;;;2.27;1.93;;;9.30;99.90;;;;;;4984625;28;20469;-71
2023/04/24 05:04:36;;;;;;;3.27;2.70;;;9.30;99.90;;;;;;4995801;28;20476;-73
2023/04/24 05:07:02;;;;;;;2.57;2.37;;;9.20;99.90;;;;;;4978491;28;20454;-71
2023/04/24 05:09:30;;;;;;;2.67;2.47;;;9.20;99.90;;;;;;5003667;28;20210;-72
2023/04/24 05:12:02;;;;;;;2.50;2.30;;;9.10;99.90;;;;;;5002950;28;20453;-73
2023/04/24 05:14:30;;;;;;;2.57;2.10;;;9.00;99.90;;;;;;4984347;28;20465;-71
2023/04/24 05:16:57;;;;;;;3.00;2.43;;;9.10;99.90;;;;;;5006525;28;20871;-73
2023/04/24 05:19:25;;;;;;;3.43;2.60;;;9.10;99.90;;;;;;4990619;28;20449;-72
2023/04/24 05:21:50;;;;;;;2.73;2.53;;;9.10;99.90;;;;;;5004644;28;20541;-71
2023/04/24 05:24:16;;;;;;;2.77;2.57;;;9.10;99.90;;;;;;5004169;28;20312;-72
2023/04/24 05:26:45;;;;;;;3.00;2.70;;;9.10;99.90;;;;;;4974255;28;20490;-72
2023/04/24 05:29:13;;;;;;;6.13;3.27;;;9.10;99.90;;;;;;5008450;28;20456;-72
2023/04/24 05:31:38;;;;;;;3.10;2.40;;;9.00;99.90;;;;;;5008474;28;20468;-71
2023/04/24 05:34:05;;;;;;;3.40;2.67;;;9.10;99.90;;;;;;5010541;28;20228;-71
2023/04/24 05:36:31;;;;;;;4.00;3.23;;;9.10;99.90;;;;;;5010212;28;20214;-73
2023/04/24 05:38:57;;;;;;;3.33;3.03;;;9.10;99.90;;;;;;5005469;28;20472;-70
2023/04/24 05:41:23;;;;;;;3.37;3.07;;;9.20;99.90;;;;;;5006939;28;20484;-71
2023/04/24 05:43:49;;;;;;;2.53;2.23;;;9.20;99.90;;;;;;4993975;28;20305;-70
2023/04/24 05:46:14;;;;;;;3.40;3.10;;;9.30;99.90;;;;;;5009938;28;20615;-71
2023/04/24 05:48:40;;;;;;;4.00;3.60;;;9.30;99.90;;;;;;5009953;28;20217;-73
2023/04/24 05:51:05;;;;;;;3.30;3.00;;;9.40;99.90;;;;;;5008409;28;20229;-72
2023/04/24 05:53:31;;;;;;;3.87;2.90;;;9.50;99.90;;;;;;4993479;28;20221;-70
2023/04/24 05:55:57;;;;;;;3.37;3.07;;;9.50;99.90;;;;;;5000109;28;20240;-71
2023/04/24 05:58:23;;;;;;;4.10;2.87;;;9.50;99.90;;;;;;5007869;28;20233;-71
2023/04/24 06:00:49;;;;;;;3.73;3.33;;;9.50;99.90;;;;;;5000374;28;20484;-72
2023/04/24 06:03:16;;;;;;;5.63;3.27;;;9.50;99.90;;;;;;5005614;28;20922;-72
2023/04/24 06:05:42;;;;;;;3.87;3.47;;;9.50;99.90;;;;;;5002421;28;20480;-72
2023/04/24 06:08:08;;;;;;;4.17;3.77;;;9.50;99.90;;;;;;5004840;28;20219;-72
2023/04/24 06:10:37;;;;;;;3.67;2.77;;;9.60;99.90;;;;;;5009925;28;20260;-72
2023/04/24 06:13:05;;;;;;;5.20;3.70;;;9.70;99.90;;;;;;5006013;28;20835;-70
2023/04/24 06:15:33;;;;;;;3.83;3.23;;;9.80;99.90;;;;;;5009573;28;20453;-73
2023/04/24 06:18:07;;;;;;;4.87;4.43;;;9.60;99.90;;;;;;4990412;28;20519;-71
2023/04/24 06:20:33;;;;;;;4.30;3.87;;;9.60;99.90;;;;;;5006276;28;20488;-74
2023/04/24 06:23:01;;;;;;;5.33;3.77;;;9.70;99.90;;;;;;4990083;28;20474;-71
2023/04/24 06:25:28;;;;;;;4.23;3.50;;;9.70;99.90;;;;;;5006754;28;20479;-72
2023/04/24 06:27:55;;;;;;;7.30;3.90;;;9.70;99.90;;;;;;4992531;28;20268;-72
2023/04/24 06:30:21;;;;;;;6.93;4.70;;;9.80;99.90;;;;;;5006602;28;20989;-72
2023/04/24 06:32:47;;;;;;;5.30;4.10;;;9.70;99.90;;;;;;5009139;28;20449;-71
2023/04/24 06:35:14;;;;;;;4.67;3.97;;;9.70;99.90;;;;;;5007401;28;20218;-71
2023/04/24 06:37:41;;;;;;;4.60;3.40;;;9.80;99.90;;;;;;5008875;28;20450;-71
2023/04/24 06:40:08;;;;;;;5.30;3.50;;;9.90;99.90;;;;;;4993429;28;20235;-71
2023/04/24 06:42:34;;;;;;;6.70;3.70;;;9.80;99.90;;;;;;5004169;28;20559;-73
2023/04/24 06:45:03;;;;;;;5.20;3.83;;;9.90;99.90;;;;;;4994127;28;20880;-71
2023/04/24 06:47:29;;;;;;;6.37;4.10;;;10.00;99.90;;;;;;5009740;28;20445;-71
2023/04/24 06:49:55;;;;;;;4.43;3.70;;;10.10;99.90;;;;;;5009913;28;20437;-72
2023/04/24 06:52:21;;;;;;;7.70;4.53;;;10.10;99.90;;;;;;5008516;28;20527;-70
2023/04/24 06:54:47;;;;;;;4.90;4.03;;;10.10;99.90;;;;;;5008943;28;20222;-71
2023/04/24 06:57:12;;;;;;;5.27;4.30;;;10.10;99.90;;;;;;5003922;28;20222;-72
2023/04/24 06:59:38;;;;;;;5.17;3.87;;;10.20;99.90;;;;;;4990319;28;20229;-72
2023/04/24 07:02:04;;;;;;;5.27;4.23;;;10.30;99.90;;;;;;5008670;28;20230;-70
2023/04/24 07:04:29;;;;;;;5.90;3.83;;;10.30;99.90;;;;;;5009269;28;20292;-71
2023/04/24 07:06:57;;;;;;;3.90;3.40;;;10.40;99.90;;;;;;5008426;28;20220;-70
2023/04/24 07:09:26;;;;;;;3.40;3.10;;;10.50;99.90;;;;;;5002369;28;20831;-72
2023/04/24 07:11:53;;;;;;;3.87;3.40;;;10.50;99.90;;;;;;5008299;28;20467;-71
2023/04/24 07:14:20;;;;;;;4.77;4.17;;;10.60;99.90;;;;;;5009687;28;20476;-72
2023/04/24 07:16:46;;;;;;;3.73;2.93;;;10.60;99.90;;;;;;5005279;28;20452;-71
2023/04/24 07:19:13;;;;;;;3.30;3.00;;;10.70;99.90;;;;;;5009624;28;20445;-71
2023/04/24 07:21:39;;;;;;;3.03;2.77;;;10.70;99.90;;;;;;5007878;28;20463;-72
2023/04/24 07:24:09;;;;;;;5.17;3.17;;;10.80;99.90;;;;;;5007668;28;20481;-70
2023/04/24 07:26:34;;;;;;;4.13;3.23;;;10.90;99.90;;;;;;5007379;28;20528;-72
2023/04/24 07:29:00;;;;;;;5.00;3.70;;;10.90;99.90;;;;;;4990413;28;20986;-71
2023/04/24 07:31:26;;;;;;;4.43;3.33;;;11.00;99.90;;;;;;5009373;28;20238;-71
2023/04/24 07:33:51;;;;;;;4.73;3.60;;;11.20;99.90;;;;;;5008045;28;20316;-70
2023/04/24 07:36:18;;;;;;;4.07;3.50;;;11.30;99.90;;;;;;4988075;28;20222;-72
2023/04/24 07:38:47;;;;;;;4.50;3.27;;;11.20;99.90;;;;;;5003425;28;20228;-72
2023/04/24 07:41:13;;;;;;;4.07;2.60;;;11.20;99.90;;;;;;5006398;28;20459;-72
2023/04/24 07:43:39;;;;;;;4.13;3.63;;;11.30;99.90;;;;;;5007386;28;20479;-72
2023/04/24 07:46:06;;;;;;;3.00;2.70;;;11.20;99.90;;;;;;5007148;28;20469;-73
2023/04/24 07:48:31;;;;;;;2.63;2.40;;;11.30;99.90;;;;;;4989715;28;20214;-72
2023/04/24 07:50:57;;;;;;;5.30;3.43;;;11.30;99.90;;;;;;5003737;28;20459;-72
2023/04/24 07:53:23;;;;;;;2.57;2.37;;;11.40;99.90;;;;;;5006613;28;20222;-73
2023/04/24 07:55:48;;;;;;;2.57;2.37;;;11.60;99.90;;;;;;5007044;28;20214;-72
2023/04/24 07:58:15;;;;;;;3.00;2.70;;;11.70;99.90;;;;;;5004940;28;20226;-71
2023/04/24 08:00:40;;;;;;;2.77;2.57;;;11.80;99.90;;;;;;4989464;28;20416;-73
2023/04/24 08:03:06;;;;;;;3.10;2.53;;;11.90;99.90;;;;;;4991480;28;20536;-72
2023/04/24 08:05:32;;;;;;;3.00;2.70;;;12.00;99.90;;;;;;5007532;28;20270;-72
2023/04/24 08:07:58;;;;;;;7.73;2.50;;;12.00;99.90;;;;;;5006246;28;20773;-70
2023/04/24 08:10:24;;;;;;;5.10;2.53;;;12.10;99.90;;;;;;5001666;28;20734;-71
2023/04/24 08:12:50;;;;;;;3.40;2.97;;;12.10;99.90;;;;;;5005165;28;20467;-70
2023/04/24 08:15:16;;;;;;;2.87;2.40;;;12.20;99.90;;;;;;5004726;28;20453;-71
2023/04/24 08:17:42;;;;;;;2.60;2.40;;;12.30;99.90;;;;;;5003662;28;20225;-71
2023/04/24 08:20:13;;;;;;;3.90;2.63;;;12.40;99.90;;;;;;4996945;28;20465;-72
2023/04/24 08:22:43;;;;;;;3.20;2.90;;;12.50;99.90;;;;;;4999404;28;20252;-73
2023/04/24 08:25:10;;;;;;;4.10;3.23;;;12.50;99.90;;;;;;5004822;28;20986;-72
2023/04/24 08:27:36;;;;;;;2.97;2.37;;;12.50;99.90;;;;;;5007260;28;20444;-72
2023/04/24 08:30:03;;;;;;;3.50;2.40;;;12.60;99.90;;;;;;5007202;28;20451;-72
2023/04/24 08:32:29;;;;;;;3.67;2.83;;;12.70;99.90;;;;;;4990588;28;20453;-72
2023/04/24 08:34:58;;;;;;;5.63;2.57;;;12.70;99.90;;;;;;4996536;28;20459;-71
2023/04/24 08:37:25;;;;;;;3.33;2.80;;;12.70;99.90;;;;;;5007957;28;20237;-72
2023/04/24 08:39:51;;;;;;;3.17;2.70;;;12.60;99.90;;;;;;5002713;28;20461;-71
2023/04/24 08:42:18;;;;;;;3.70;2.87;;;12.60;99.90;;;;;;5004785;28;20500;-72
2023/04/24 08:44:44;;;;;;;3.10;2.53;;;12.70;99.90;;;;;;5006077;28;20220;-71
2023/04/24 08:47:11;;;;;;;2.43;2.23;;;12.70;99.90;;;;;;5007029;28;20441;-72
2023/04/24 08:49:37;;;;;;;2.50;2.30;;;12.50;99.90;;;;;;4999874;28;20485;-73
2023/04/24 08:52:04;;;;;;;3.87;2.73;;;12.40;99.90;;;;;;5006852;28;20836;-73
2023/04/24 08:54:31;;;;;;;4.17;2.57;;;12.40;99.90;;;;;;5006900;28;20487;-72
2023/04/24 08:57:01;;;;;;;2.87;2.53;;;12.50;99.90;;;;;;5009629;28;20455;-71
2023/04/24 08:59:27;;;;;;;3.53;3.10;;;12.50;99.90;;;;;;5002447;28;20447;-72
2023/04/24 09:01:54;;;;;;;3.80;2.67;;;12.70;99.90;;;;;;4999873;28;20449;-71
2023/04/24 09:04:22;;;;;;;2.50;2.30;;;12.80;99.90;;;;;;5006686;28;20467;-72
2023/04/24 09:06:55;;;;;;;2.40;2.20;;;13.00;99.90;;;;;;5010438;28;20531;-73
2023/04/24 09:09:22;;;;;;;3.60;2.00;;;13.10;99.90;;;;;;5010090;28;20459;-72
2023/04/24 09:11:49;;;;;;;2.50;2.30;;;13.00;99.90;;;;;;5005166;28;20461;-71
2023/04/24 09:14:16;;;;;;;2.13;1.93;;;12.80;99.90;;;;;;4995234;28;20441;-72
2023/04/24 09:16:42;;;;;;;2.30;1.90;;;12.70;99.90;;;;;;5008630;28;20510;-71
2023/04/24 09:19:08;;;;;;;3.70;1.97;;;12.70;99.90;;;;;;5010309;28;20531;-71
2023/04/24 09:21:34;;;;;;;2.23;2.03;;;12.60;99.90;;;;;;5007317;28;20537;-80
2023/04/24 09:24:05;;;;;;;1.70;1.60;;;12.50;99.90;;;;;;4992992;28;20234;-72
2023/04/24 09:26:32;;;;;;;4.10;2.67;;;12.50;99.90;;;;;;5010038;28;20449;-73
2023/04/24 09:28:59;;;;;;;2.17;1.97;;;12.60;99.90;;;;;;5009471;28;20444;-73
2023/04/24 09:31:28;;;;;;;2.10;1.90;;;12.60;99.90;;;;;;5010398;28;20526;-72
2023/04/24 09:33:55;;;;;;;2.60;2.20;;;12.70;99.90;;;;;;5010694;28;20606;-71
2023/04/24 09:36:28;;;;;;;1.70;1.60;;;12.90;99.90;;;;;;5010924;28;20469;-71
2023/04/24 09:38:58;;;;;;;3.87;2.03;;;13.00;99.90;;;;;;5011722;28;20520;-72
2023/04/24 09:41:24;;;;;;;3.53;2.13;;;13.10;99.90;;;;;;5010719;28;20464;-72
2023/04/24 09:43:49;;;;;;;2.33;2.00;;;13.10;99.90;;;;;;5005779;28;20472;-72
2023/04/24 09:46:18;;;;;;;3.20;2.30;;;13.00;99.90;;;;;;4995413;28;20308;-71
2023/04/24 09:48:44;;;;;;;4.90;2.17;;;12.80;99.90;;;;;;5009744;28;20224;-72
2023/04/24 09:51:12;;;;;;;1.70;1.60;;;12.70;99.90;;;;;;5004772;28;20457;-74
2023/04/24 09:53:41;;;;;;;2.20;2.00;;;12.60;99.90;;;;;;5002353;28;20775;-73
2023/04/24 09:56:12;;;;;;;2.17;2.00;;;12.50;99.90;;;;;;5010446;28;20543;-72
2023/04/24 09:58:39;;;;;;;2.00;1.80;;;12.50;99.90;;;;;;5009351;28;20465;-72
2023/04/24 10:01:04;;;;;;;3.20;2.10;;;12.50;99.90;;;;;;5005298;28;20481;-72
2023/04/24 10:03:32;;;;;;;2.83;2.03;;;12.60;99.90;;;;;;5011800;28;20994;-72
2023/04/24 10:06:01;;;;;;;2.50;2.30;;;12.70;99.90;;;;;;5007693;28;20225;-72
2023/04/24 10:08:34;;;;;;;2.47;1.93;;;12.80;99.90;;;;;;4992837;28;20465;-73
2023/04/24 10:11:00;;;;;;;2.00;1.80;;;12.90;99.90;;;;;;4989598;28;20458;-71
2023/04/24 10:13:27;;;;;;;2.30;1.90;;;13.00;99.90;;;;;;5004599;28;20454;-72
2023/04/24 10:15:54;;;;;;;2.13;2.03;;;13.10;99.90;;;;;;5009214;28;20493;-73
2023/04/24 10:18:21;;;;;;;2.50;2.20;;;13.10;99.90;;;;;;5008362;28;20465;-72
2023/04/24 10:20:47;;;;;;;1.97;1.87;;;12.90;99.90;;;;;;5005114;28;20469;-71
2023/04/24 10:23:13;;;;;;;2.53;1.70;;;12.80;99.90;;;;;;5009490;28;20469;-72
2023/04/24 10:25:39;;;;;;;2.40;1.97;;;12.80;99.90;;;;;;5009106;28;20538;-72
2023/04/24 10:28:05;;;;;;;2.67;1.87;;;12.70;99.90;;;;;;5009233;28;20604;-72
2023/04/24 10:30:36;;;;;;;2.30;2.10;;;12.60;99.90;;;;;;5005079;28;20462;-73
2023/04/24 10:33:07;;;;;;;2.47;1.93;;;12.60;99.90;;;;;;4989174;28;20966;-73
2023/04/24 10:35:38;;;;;;;2.10;2.00;;;12.50;99.90;;;;;;5009161;28;20472;-72
2023/04/24 10:38:08;;;;;;;2.03;1.83;;;12.60;99.90;;;;;;5007480;28;20464;-73
2023/04/24 10:40:35;;;;;;;1.57;1.47;;;12.70;99.90;;;;;;5008321;28;21028;-72
2023/04/24 10:43:07;;;;;;;1.67;1.57;;;12.50;99.90;;;;;;4992751;28;21011;-71
2023/04/24 10:45:33;;;;;;;1.90;1.70;;;12.50;99.90;;;;;;5007946;28;20975;-73
2023/04/24 10:48:02;;;;;;;2.13;1.90;;;12.50;99.90;;;;;;5010044;28;21280;-71
2023/04/24 10:50:50;;;;;;;2.23;2.03;;;12.50;99.90;;;;;;5011562;28;20547;-73
2023/04/24 10:53:18;;;;;;;2.83;2.10;;;12.50;99.90;;;;;;5009579;28;20877;-73
2023/04/24 10:55:45;;;;;;;5.33;1.70;;;12.50;99.90;;;;;;4992844;28;20487;-73
2023/04/24 10:58:11;;;;;;;1.47;1.37;;;12.50;99.90;;;;;;5001641;28;20461;-72
2023/04/24 11:00:39;;;;;;;2.33;1.77;;;12.40;99.90;;;;;;5006687;28;21017;-73
2023/04/24 11:03:41;;;;;;;1.43;1.30;;;12.30;99.90;;;;;;5008311;28;20963;-73
2023/04/24 11:06:08;;;;;;;2.30;1.73;;;12.10;99.90;;;;;;4970260;28;20973;-73
2023/04/24 11:08:45;;;;;;;2.13;1.30;;;12.10;99.90;;;;;;5006288;28;20494;-72
2023/04/24 11:11:15;;;;;;;2.13;1.50;;;12.10;99.90;;;;;;4986157;28;20454;-73
2023/04/24 11:13:55;;;;;;;1.90;1.30;;;12.10;99.90;;;;;;5003748;28;20475;-72
2023/04/24 11:16:30;;;;;;;1.73;1.63;;;12.10;99.90;;;;;;4995203;28;20465;-71
2023/04/24 11:19:06;;;;;;;1.50;1.40;;;11.80;99.90;;;;;;5003051;28;20428;-72
2023/04/24 11:21:38;;;;;;;1.60;1.50;;;11.60;99.90;;;;;;5006989;28;20470;-71
2023/04/24 11:24:26;;;;;;;1.70;1.43;;;11.30;99.90;;;;;;5008172;28;20492;-72
2023/04/24 11:26:56;;;;;;;1.57;1.47;;;11.20;99.90;;;;;;5006074;28;20539;-71
2023/04/24 11:29:23;;;;;;;1.47;1.37;;;11.20;99.90;;;;;;5002074;28;20465;-70
2023/04/24 11:31:51;;;;;;;4.57;1.60;;;11.20;99.90;;;;;;4991897;28;20468;-72
2023/04/24 11:34:17;;;;;;;1.73;1.50;;;11.20;99.90;;;;;;5010025;28;20490;-72
2023/04/24 11:36:47;;;;;;;1.90;1.70;;;11.30;99.90;;;;;;5000062;28;20449;-71
2023/04/24 11:39:14;;;;;;;2.37;2.17;;;11.30;99.90;;;;;;5009436;28;20445;-72
2023/04/24 11:41:40;;;;;;;2.40;2.20;;;11.40;99.90;;;;;;5007238;28;20471;-71
2023/04/24 11:44:11;;;;;;;2.07;1.93;;;11.70;99.90;;;;;;5007861;28;20477;-72
2023/04/24 11:46:37;;;;;;;3.23;2.80;;;11.80;99.90;;;;;;5006715;28;20240;-72
2023/04/24 11:49:03;;;;;;;5.60;3.10;;;12.10;99.90;;;;;;5012391;28;20459;-70
2023/04/24 11:51:29;;;;;;;2.87;2.60;;;12.20;99.90;;;;;;5005847;28;20505;-71
2023/04/24 11:53:55;;;;;;;2.57;2.33;;;12.30;99.90;;;;;;5005404;28;20233;-70
2023/04/24 11:56:22;;;;;;;3.67;2.93;;;12.40;99.90;;;;;;5006303;28;20252;-71
2023/04/24 11:58:48;;;;;;;4.07;2.73;;;12.40;99.90;;;;;;5007260;28;20467;-70
2023/04/24 12:01:14;;;;;;;4.43;3.37;;;12.40;99.90;;;;;;5007297;28;20469;-71
2023/04/24 12:03:43;;;;;;;9.57;3.20;;;12.60;99.90;;;;;;5000442;28;20238;-71
2023/04/24 12:06:11;;;;;;;5.30;3.20;;;12.80;99.90;;;;;;5006792;28;20473;-71
2023/04/24 12:08:37;;;;;;;3.57;3.00;;;12.80;99.90;;;;;;5006638;28;20469;-71
2023/04/24 12:11:05;;;;;;;5.43;3.13;;;12.80;99.90;;;;;;5002313;28;20518;-71
2023/04/24 12:13:31;;;;;;;4.07;3.60;;;12.80;99.90;;;;;;5008527;28;20456;-71
2023/04/24 12:15:57;;;;;;;3.50;3.20;;;12.70;99.90;;;;;;5006581;28;20985;-71
2023/04/24 12:18:23;;;;;;;4.07;3.30;;;12.60;99.90;;;;;;5008845;28;20217;-71
2023/04/24 12:20:49;;;;;;;2.90;2.70;;;12.50;99.90;;;;;;5006891;28;20562;-70
2023/04/24 12:23:17;;;;;;;3.27;2.97;;;12.60;99.90;;;;;;5007502;28;21021;-73
2023/04/24 12:25:43;;;;;;;4.57;3.00;;;12.60;99.90;;;;;;5003754;28;20479;-72
2023/04/24 12:28:11;;;;;;;8.10;3.60;;;12.60;99.90;;;;;;5007480;28;20453;-72
2023/04/24 12:30:48;;;;;;;4.53;3.40;;;12.60;99.90;;;;;;5007869;28;20298;-72
2023/04/24 12:33:18;;;;;;;4.30;3.50;;;12.50;99.90;;;;;;5006566;28;20527;-72
2023/04/24 12:35:44;;;;;;;3.90;2.67;;;12.60;99.90;;;;;;5005356;28;20550;-73
2023/04/24 12:38:12;;;;;;;3.60;3.00;;;12.60;99.90;;;;;;5001221;28;20481;-71
2023/04/24 12:40:38;;;;;;;6.37;3.10;;;12.70;99.90;;;;;;4989218;28;20226;-71
2023/04/24 12:43:15;;;;;;;4.80;2.93;;;12.80;99.90;;;;;;5010339;28;20522;-73
2023/04/24 12:45:41;;;;;;;5.83;3.60;;;12.90;99.90;;;;;;5007912;28;20458;-71
2023/04/24 12:48:06;;;;;;;5.43;3.80;;;13.10;99.90;;;;;;5008463;28;20544;-72